sensor_id;sensor_type;location;lat;lon;timestamp;P1;durP1;ratioP1;P2;durP2;ratioP2
22634;SDS011;11484;50.858;4.384;2023-04-24T00:01:47;15.98;;;9.13;;
22634;SDS011;11484;50.858;4.384;2023-04-24T00:04:13;17.17;;;8.95;;
22634;SDS011;11484;50.858;4.384;2023-04-24T00:06:41;16.85;;;8.98;;
22634;SDS011;11484;50.858;4.384;2023-04-24T00:09:08;17.30;;;10.02;;
22634;SDS011;11484;50.858;4.384;2023-04-24T00:11:35;15.02;;;8.50;;
22634;SDS011;11484;50.858;4.384;2023-04-24T00:14:01;15.32;;;8.73;;
22634;SDS011;11484;50.858;4.384;2023-04-24T00:16:27;15.02;;;8.00;;
22634;SDS011;11484;50.858;4.384;2023-04-24T00:18:53;19.75;;;9.82;;
22634;SDS011;11484;50.858;4.384;2023-04-24T00:21:19;17.38;;;9.20;;
22634;SDS011;11484;50.858;4.384;2023-04-24T00:23:45;19.30;;;9.10;;
22634;SDS011;11484;50.858;4.384;2023-04-24T00:26:11;14.20;;;9.38;;
22634;SDS011;11484;50.858;4.384;2023-04-24T00:28:36;16.15;;;9.77;;
22634;SDS011;11484;50.858;4.384;2023-04-24T00:31:02;16.48;;;9.65;;
22634;SDS011;11484;50.858;4.384;2023-04-24T00:33:28;17.38;;;9.52;;
22634;SDS011;11484;50.858;4.384;2023-04-24T00:35:54;14.80;;;8.82;;
22634;SDS011;11484;50.858;4.384;2023-04-24T00:38:20;17.90;;;9.75;;
22634;SDS011;11484;50.858;4.384;2023-04-24T00:40:47;17.75;;;8.95;;
22634;SDS011;11484;50.858;4.384;2023-04-24T00:43:13;15.90;;;8.85;;
22634;SDS011;11484;50.858;4.384;2023-04-24T00:45:38;17.10;;;9.05;;
22634;SDS011;11484;50.858;4.384;2023-04-24T00:48:05;18.95;;;9.35;;
22634;SDS011;11484;50.858;4.384;2023-04-24T00:50:31;18.02;;;9.48;;
22634;SDS011;11484;50.858;4.384;2023-04-24T00:52:57;17.08;;;9.00;;
22634;SDS011;11484;50.858;4.384;2023-04-24T00:55:23;17.27;;;9.90;;
22634;SDS011;11484;50.858;4.384;2023-04-24T00:57:50;14.35;;;9.05;;
22634;SDS011;11484;50.858;4.384;2023-04-24T01:00:17;16.08;;;9.52;;
22634;SDS011;11484;50.858;4.384;2023-04-24T01:02:44;15.40;;;8.93;;
22634;SDS011;11484;50.858;4.384;2023-04-24T01:05:11;16.15;;;9.05;;
22634;SDS011;11484;50.858;4.384;2023-04-24T01:07:38;17.77;;;9.05;;
22634;SDS011;11484;50.858;4.384;2023-04-24T01:10:05;15.95;;;9.10;;
22634;SDS011;11484;50.858;4.384;2023-04-24T01:12:33;15.98;;;8.90;;
22634;SDS011;11484;50.858;4.384;2023-04-24T01:14:59;17.83;;;9.85;;
22634;SDS011;11484;50.858;4.384;2023-04-24T01:17:24;15.68;;;9.27;;
22634;SDS011;11484;50.858;4.384;2023-04-24T01:19:50;18.95;;;9.13;;
22634;SDS011;11484;50.858;4.384;2023-04-24T01:22:18;17.15;;;9.65;;
22634;SDS011;11484;50.858;4.384;2023-04-24T01:24:45;13.45;;;9.13;;
22634;SDS011;11484;50.858;4.384;2023-04-24T01:27:11;16.58;;;9.25;;
22634;SDS011;11484;50.858;4.384;2023-04-24T01:29:37;20.10;;;10.02;;
22634;SDS011;11484;50.858;4.384;2023-04-24T01:32:04;15.98;;;9.13;;
22634;SDS011;11484;50.858;4.384;2023-04-24T01:34:30;17.45;;;9.65;;
22634;SDS011;11484;50.858;4.384;2023-04-24T01:36:56;17.55;;;9.20;;
22634;SDS011;11484;50.858;4.384;2023-04-24T01:39:22;16.13;;;9.05;;
22634;SDS011;11484;50.858;4.384;2023-04-24T01:41:53;15.68;;;8.05;;
22634;SDS011;11484;50.858;4.384;2023-04-24T01:44:19;15.85;;;9.40;;
22634;SDS011;11484;50.858;4.384;2023-04-24T01:46:45;15.27;;;8.95;;
22634;SDS011;11484;50.858;4.384;2023-04-24T01:49:11;12.95;;;7.47;;
22634;SDS011;11484;50.858;4.384;2023-04-24T01:51:37;13.85;;;8.32;;
22634;SDS011;11484;50.858;4.384;2023-04-24T01:54:03;11.73;;;7.13;;
22634;SDS011;11484;50.858;4.384;2023-04-24T01:56:30;13.70;;;7.53;;
22634;SDS011;11484;50.858;4.384;2023-04-24T01:58:59;14.30;;;8.13;;
22634;SDS011;11484;50.858;4.384;2023-04-24T02:01:27;12.77;;;8.27;;
22634;SDS011;11484;50.858;4.384;2023-04-24T02:04:03;15.20;;;8.63;;
22634;SDS011;11484;50.858;4.384;2023-04-24T02:06:30;13.45;;;8.85;;
22634;SDS011;11484;50.858;4.384;2023-04-24T02:08:56;13.88;;;8.95;;
22634;SDS011;11484;50.858;4.384;2023-04-24T02:11:23;14.68;;;7.88;;
22634;SDS011;11484;50.858;4.384;2023-04-24T02:13:49;13.07;;;8.30;;
22634;SDS011;11484;50.858;4.384;2023-04-24T02:16:16;13.55;;;9.15;;
22634;SDS011;11484;50.858;4.384;2023-04-24T02:18:42;14.05;;;9.18;;
22634;SDS011;11484;50.858;4.384;2023-04-24T02:21:07;15.57;;;9.23;;
22634;SDS011;11484;50.858;4.384;2023-04-24T02:23:34;15.00;;;9.50;;
22634;SDS011;11484;50.858;4.384;2023-04-24T02:25:59;13.65;;;9.80;;
22634;SDS011;11484;50.858;4.384;2023-04-24T02:28:25;15.75;;;8.88;;
22634;SDS011;11484;50.858;4.384;2023-04-24T02:30:51;17.20;;;9.95;;
22634;SDS011;11484;50.858;4.384;2023-04-24T02:33:17;17.95;;;9.82;;
22634;SDS011;11484;50.858;4.384;2023-04-24T02:35:42;15.43;;;8.95;;
22634;SDS011;11484;50.858;4.384;2023-04-24T02:38:09;19.10;;;9.55;;
22634;SDS011;11484;50.858;4.384;2023-04-24T02:40:35;16.60;;;9.50;;
22634;SDS011;11484;50.858;4.384;2023-04-24T02:43:00;15.77;;;9.30;;
22634;SDS011;11484;50.858;4.384;2023-04-24T02:45:26;15.50;;;8.95;;
22634;SDS011;11484;50.858;4.384;2023-04-24T02:47:52;16.13;;;9.18;;
22634;SDS011;11484;50.858;4.384;2023-04-24T02:50:17;14.05;;;8.98;;
22634;SDS011;11484;50.858;4.384;2023-04-24T02:52:43;14.63;;;8.98;;
22634;SDS011;11484;50.858;4.384;2023-04-24T02:55:09;12.88;;;8.27;;
22634;SDS011;11484;50.858;4.384;2023-04-24T02:57:35;13.27;;;8.73;;
22634;SDS011;11484;50.858;4.384;2023-04-24T03:00:01;14.48;;;9.27;;
22634;SDS011;11484;50.858;4.384;2023-04-24T03:02:28;12.35;;;7.80;;
22634;SDS011;11484;50.858;4.384;2023-04-24T03:04:54;13.27;;;7.70;;
22634;SDS011;11484;50.858;4.384;2023-04-24T03:07:20;14.18;;;8.02;;
22634;SDS011;11484;50.858;4.384;2023-04-24T03:09:46;11.85;;;8.43;;
22634;SDS011;11484;50.858;4.384;2023-04-24T03:12:12;11.80;;;7.38;;
22634;SDS011;11484;50.858;4.384;2023-04-24T03:14:38;15.05;;;8.60;;
22634;SDS011;11484;50.858;4.384;2023-04-24T03:17:04;10.95;;;8.23;;
22634;SDS011;11484;50.858;4.384;2023-04-24T03:19:30;13.57;;;7.97;;
22634;SDS011;11484;50.858;4.384;2023-04-24T03:21:55;13.35;;;7.70;;
22634;SDS011;11484;50.858;4.384;2023-04-24T03:24:21;12.98;;;7.82;;
22634;SDS011;11484;50.858;4.384;2023-04-24T03:26:47;12.18;;;7.30;;
22634;SDS011;11484;50.858;4.384;2023-04-24T03:29:13;14.10;;;8.77;;
22634;SDS011;11484;50.858;4.384;2023-04-24T03:31:38;10.73;;;7.35;;
22634;SDS011;11484;50.858;4.384;2023-04-24T03:34:04;14.18;;;8.15;;
22634;SDS011;11484;50.858;4.384;2023-04-24T03:36:30;11.00;;;7.63;;
22634;SDS011;11484;50.858;4.384;2023-04-24T03:38:56;11.90;;;7.13;;
22634;SDS011;11484;50.858;4.384;2023-04-24T03:41:22;15.45;;;7.75;;
22634;SDS011;11484;50.858;4.384;2023-04-24T03:43:48;10.10;;;6.47;;
22634;SDS011;11484;50.858;4.384;2023-04-24T03:46:13;9.77;;;7.05;;
22634;SDS011;11484;50.858;4.384;2023-04-24T03:48:40;10.55;;;7.10;;
22634;SDS011;11484;50.858;4.384;2023-04-24T03:51:05;12.15;;;6.70;;
22634;SDS011;11484;50.858;4.384;2023-04-24T03:53:31;13.30;;;9.73;;
22634;SDS011;11484;50.858;4.384;2023-04-24T03:55:57;10.48;;;7.03;;
22634;SDS011;11484;50.858;4.384;2023-04-24T03:58:22;11.15;;;7.13;;
22634;SDS011;11484;50.858;4.384;2023-04-24T04:00:48;11.50;;;6.30;;
22634;SDS011;11484;50.858;4.384;2023-04-24T04:03:14;9.45;;;6.25;;
22634;SDS011;11484;50.858;4.384;2023-04-24T04:05:40;8.80;;;5.82;;
22634;SDS011;11484;50.858;4.384;2023-04-24T04:08:06;8.75;;;5.47;;
22634;SDS011;11484;50.858;4.384;2023-04-24T04:10:31;8.98;;;6.40;;
22634;SDS011;11484;50.858;4.384;2023-04-24T04:12:57;7.00;;;4.75;;
22634;SDS011;11484;50.858;4.384;2023-04-24T04:15:23;8.50;;;4.90;;
22634;SDS011;11484;50.858;4.384;2023-04-24T04:17:48;10.70;;;5.05;;
22634;SDS011;11484;50.858;4.384;2023-04-24T04:20:14;8.48;;;5.38;;
22634;SDS011;11484;50.858;4.384;2023-04-24T04:22:40;10.82;;;5.50;;
22634;SDS011;11484;50.858;4.384;2023-04-24T04:25:06;7.60;;;4.95;;
22634;SDS011;11484;50.858;4.384;2023-04-24T04:27:33;9.35;;;5.55;;
22634;SDS011;11484;50.858;4.384;2023-04-24T04:29:59;9.48;;;5.82;;
22634;SDS011;11484;50.858;4.384;2023-04-24T04:32:33;6.72;;;4.88;;
22634;SDS011;11484;50.858;4.384;2023-04-24T04:34:59;8.87;;;5.23;;
22634;SDS011;11484;50.858;4.384;2023-04-24T04:37:29;6.57;;;4.97;;
22634;SDS011;11484;50.858;4.384;2023-04-24T04:39:56;7.85;;;5.25;;
22634;SDS011;11484;50.858;4.384;2023-04-24T04:42:23;9.80;;;5.00;;
22634;SDS011;11484;50.858;4.384;2023-04-24T04:44:49;8.23;;;5.15;;
22634;SDS011;11484;50.858;4.384;2023-04-24T04:47:15;9.32;;;6.60;;
22634;SDS011;11484;50.858;4.384;2023-04-24T04:49:42;11.40;;;5.72;;
22634;SDS011;11484;50.858;4.384;2023-04-24T04:52:08;8.30;;;6.10;;
22634;SDS011;11484;50.858;4.384;2023-04-24T04:54:34;7.93;;;5.35;;
22634;SDS011;11484;50.858;4.384;2023-04-24T04:57:00;7.88;;;5.70;;
22634;SDS011;11484;50.858;4.384;2023-04-24T04:59:26;9.75;;;6.40;;
22634;SDS011;11484;50.858;4.384;2023-04-24T05:01:52;12.95;;;7.10;;
22634;SDS011;11484;50.858;4.384;2023-04-24T05:04:18;9.95;;;6.60;;
22634;SDS011;11484;50.858;4.384;2023-04-24T05:06:44;11.88;;;7.35;;
22634;SDS011;11484;50.858;4.384;2023-04-24T05:09:10;14.13;;;7.68;;
22634;SDS011;11484;50.858;4.384;2023-04-24T05:11:36;12.88;;;7.70;;
22634;SDS011;11484;50.858;4.384;2023-04-24T05:14:02;17.15;;;7.97;;
22634;SDS011;11484;50.858;4.384;2023-04-24T05:16:27;16.65;;;8.20;;
22634;SDS011;11484;50.858;4.384;2023-04-24T05:18:53;13.23;;;7.78;;
22634;SDS011;11484;50.858;4.384;2023-04-24T05:21:19;14.50;;;8.20;;
22634;SDS011;11484;50.858;4.384;2023-04-24T05:25:50;13.48;;;9.13;;
22634;SDS011;11484;50.858;4.384;2023-04-24T05:28:16;17.20;;;9.23;;
22634;SDS011;11484;50.858;4.384;2023-04-24T05:30:41;13.77;;;8.80;;
22634;SDS011;11484;50.858;4.384;2023-04-24T05:33:07;15.82;;;8.43;;
22634;SDS011;11484;50.858;4.384;2023-04-24T05:35:34;16.40;;;8.50;;
22634;SDS011;11484;50.858;4.384;2023-04-24T05:37:59;13.18;;;8.27;;
22634;SDS011;11484;50.858;4.384;2023-04-24T05:40:25;14.15;;;8.88;;
22634;SDS011;11484;50.858;4.384;2023-04-24T05:42:51;12.65;;;8.57;;
22634;SDS011;11484;50.858;4.384;2023-04-24T05:45:16;15.93;;;9.18;;
22634;SDS011;11484;50.858;4.384;2023-04-24T05:47:42;14.90;;;8.43;;
22634;SDS011;11484;50.858;4.384;2023-04-24T05:50:09;15.18;;;8.40;;
22634;SDS011;11484;50.858;4.384;2023-04-24T05:52:35;16.52;;;8.43;;
22634;SDS011;11484;50.858;4.384;2023-04-24T05:55:01;15.02;;;8.90;;
22634;SDS011;11484;50.858;4.384;2023-04-24T05:57:26;13.52;;;8.38;;
22634;SDS011;11484;50.858;4.384;2023-04-24T05:59:52;19.48;;;9.57;;
22634;SDS011;11484;50.858;4.384;2023-04-24T06:02:18;13.27;;;8.63;;
22634;SDS011;11484;50.858;4.384;2023-04-24T06:04:44;19.67;;;9.60;;
22634;SDS011;11484;50.858;4.384;2023-04-24T06:07:10;17.67;;;9.32;;
22634;SDS011;11484;50.858;4.384;2023-04-24T06:09:36;14.93;;;9.35;;
22634;SDS011;11484;50.858;4.384;2023-04-24T06:12:02;16.48;;;9.10;;
22634;SDS011;11484;50.858;4.384;2023-04-24T06:14:28;14.27;;;8.95;;
22634;SDS011;11484;50.858;4.384;2023-04-24T06:16:54;16.50;;;9.18;;
22634;SDS011;11484;50.858;4.384;2023-04-24T06:19:19;15.82;;;8.68;;
22634;SDS011;11484;50.858;4.384;2023-04-24T06:21:45;17.95;;;9.13;;
22634;SDS011;11484;50.858;4.384;2023-04-24T06:24:13;18.85;;;9.95;;
22634;SDS011;11484;50.858;4.384;2023-04-24T06:26:39;15.10;;;9.35;;
22634;SDS011;11484;50.858;4.384;2023-04-24T06:29:05;17.05;;;9.85;;
22634;SDS011;11484;50.858;4.384;2023-04-24T06:31:32;17.10;;;10.15;;
22634;SDS011;11484;50.858;4.384;2023-04-24T06:34:02;18.67;;;9.73;;
22634;SDS011;11484;50.858;4.384;2023-04-24T06:36:28;18.38;;;9.70;;
22634;SDS011;11484;50.858;4.384;2023-04-24T06:38:54;20.42;;;10.73;;
22634;SDS011;11484;50.858;4.384;2023-04-24T06:41:20;21.25;;;10.85;;
22634;SDS011;11484;50.858;4.384;2023-04-24T06:43:45;17.70;;;10.55;;
22634;SDS011;11484;50.858;4.384;2023-04-24T06:46:11;16.13;;;11.18;;
22634;SDS011;11484;50.858;4.384;2023-04-24T06:48:38;22.00;;;12.77;;
22634;SDS011;11484;50.858;4.384;2023-04-24T06:51:04;20.85;;;11.63;;
22634;SDS011;11484;50.858;4.384;2023-04-24T06:53:30;20.42;;;10.98;;
22634;SDS011;11484;50.858;4.384;2023-04-24T06:55:56;20.45;;;11.73;;
22634;SDS011;11484;50.858;4.384;2023-04-24T06:58:21;18.05;;;10.35;;
22634;SDS011;11484;50.858;4.384;2023-04-24T07:00:47;20.08;;;11.27;;
22634;SDS011;11484;50.858;4.384;2023-04-24T07:03:13;18.38;;;11.18;;
22634;SDS011;11484;50.858;4.384;2023-04-24T07:05:38;21.77;;;11.88;;
22634;SDS011;11484;50.858;4.384;2023-04-24T07:08:05;18.92;;;11.50;;
22634;SDS011;11484;50.858;4.384;2023-04-24T07:10:31;18.60;;;11.43;;
22634;SDS011;11484;50.858;4.384;2023-04-24T07:13:00;24.95;;;13.07;;
22634;SDS011;11484;50.858;4.384;2023-04-24T07:15:26;23.05;;;11.45;;
22634;SDS011;11484;50.858;4.384;2023-04-24T07:17:52;22.05;;;11.90;;
22634;SDS011;11484;50.858;4.384;2023-04-24T07:20:18;20.35;;;11.40;;
22634;SDS011;11484;50.858;4.384;2023-04-24T07:22:43;18.77;;;10.18;;
22634;SDS011;11484;50.858;4.384;2023-04-24T07:25:09;18.88;;;10.57;;
22634;SDS011;11484;50.858;4.384;2023-04-24T07:27:35;16.65;;;9.93;;
22634;SDS011;11484;50.858;4.384;2023-04-24T07:30:01;14.05;;;8.82;;
22634;SDS011;11484;50.858;4.384;2023-04-24T07:32:30;16.52;;;9.43;;
22634;SDS011;11484;50.858;4.384;2023-04-24T07:34:55;16.20;;;8.43;;
22634;SDS011;11484;50.858;4.384;2023-04-24T07:37:21;14.98;;;7.45;;
22634;SDS011;11484;50.858;4.384;2023-04-24T07:39:48;14.20;;;7.82;;
22634;SDS011;11484;50.858;4.384;2023-04-24T07:42:13;14.20;;;7.93;;
22634;SDS011;11484;50.858;4.384;2023-04-24T07:44:39;13.90;;;7.60;;
22634;SDS011;11484;50.858;4.384;2023-04-24T07:47:05;13.15;;;6.82;;
22634;SDS011;11484;50.858;4.384;2023-04-24T07:49:37;13.20;;;6.75;;
22634;SDS011;11484;50.858;4.384;2023-04-24T07:52:03;12.00;;;7.15;;
22634;SDS011;11484;50.858;4.384;2023-04-24T07:54:29;16.13;;;7.03;;
22634;SDS011;11484;50.858;4.384;2023-04-24T07:56:54;16.23;;;8.27;;
22634;SDS011;11484;50.858;4.384;2023-04-24T07:59:20;15.73;;;7.90;;
22634;SDS011;11484;50.858;4.384;2023-04-24T08:01:46;20.25;;;9.75;;
22634;SDS011;11484;50.858;4.384;2023-04-24T08:04:11;13.60;;;8.18;;
22634;SDS011;11484;50.858;4.384;2023-04-24T08:06:37;14.32;;;8.20;;
22634;SDS011;11484;50.858;4.384;2023-04-24T08:09:04;12.95;;;8.02;;
22634;SDS011;11484;50.858;4.384;2023-04-24T08:11:30;19.42;;;8.88;;
22634;SDS011;11484;50.858;4.384;2023-04-24T08:13:55;18.15;;;9.43;;
22634;SDS011;11484;50.858;4.384;2023-04-24T08:16:21;13.98;;;8.05;;
22634;SDS011;11484;50.858;4.384;2023-04-24T08:18:48;19.00;;;7.55;;
22634;SDS011;11484;50.858;4.384;2023-04-24T08:21:15;16.08;;;7.53;;
22634;SDS011;11484;50.858;4.384;2023-04-24T08:23:43;14.32;;;6.63;;
22634;SDS011;11484;50.858;4.384;2023-04-24T08:26:12;12.48;;;6.57;;
22634;SDS011;11484;50.858;4.384;2023-04-24T08:28:38;11.27;;;6.68;;
22634;SDS011;11484;50.858;4.384;2023-04-24T08:31:04;11.10;;;6.25;;
22634;SDS011;11484;50.858;4.384;2023-04-24T08:33:30;15.68;;;6.70;;
22634;SDS011;11484;50.858;4.384;2023-04-24T08:36:00;15.40;;;6.57;;
22634;SDS011;11484;50.858;4.384;2023-04-24T08:38:29;11.82;;;6.10;;
22634;SDS011;11484;50.858;4.384;2023-04-24T08:40:59;12.95;;;6.03;;
22634;SDS011;11484;50.858;4.384;2023-04-24T08:43:26;13.50;;;6.05;;
22634;SDS011;11484;50.858;4.384;2023-04-24T08:45:54;11.35;;;6.63;;
22634;SDS011;11484;50.858;4.384;2023-04-24T08:48:21;9.85;;;5.88;;
22634;SDS011;11484;50.858;4.384;2023-04-24T08:50:48;10.00;;;5.18;;
22634;SDS011;11484;50.858;4.384;2023-04-24T08:53:17;13.60;;;4.97;;
22634;SDS011;11484;50.858;4.384;2023-04-24T08:55:43;8.63;;;4.85;;
22634;SDS011;11484;50.858;4.384;2023-04-24T08:58:13;6.97;;;4.07;;
22634;SDS011;11484;50.858;4.384;2023-04-24T09:00:40;7.53;;;3.95;;
22634;SDS011;11484;50.858;4.384;2023-04-24T09:03:11;7.53;;;4.65;;
22634;SDS011;11484;50.858;4.384;2023-04-24T09:05:42;10.07;;;4.18;;
22634;SDS011;11484;50.858;4.384;2023-04-24T09:08:10;10.27;;;4.40;;
22634;SDS011;11484;50.858;4.384;2023-04-24T09:10:39;10.02;;;4.47;;
22634;SDS011;11484;50.858;4.384;2023-04-24T09:13:06;7.15;;;3.85;;
22634;SDS011;11484;50.858;4.384;2023-04-24T09:15:36;9.77;;;4.32;;
22634;SDS011;11484;50.858;4.384;2023-04-24T09:18:03;9.45;;;4.10;;
22634;SDS011;11484;50.858;4.384;2023-04-24T09:20:30;7.45;;;3.85;;
22634;SDS011;11484;50.858;4.384;2023-04-24T09:22:56;9.63;;;3.95;;
22634;SDS011;11484;50.858;4.384;2023-04-24T09:25:25;6.82;;;3.63;;
22634;SDS011;11484;50.858;4.384;2023-04-24T09:28:01;6.80;;;3.60;;
22634;SDS011;11484;50.858;4.384;2023-04-24T09:30:28;7.22;;;3.78;;
22634;SDS011;11484;50.858;4.384;2023-04-24T09:33:13;11.57;;;4.88;;
22634;SDS011;11484;50.858;4.384;2023-04-24T09:35:50;7.10;;;3.72;;
22634;SDS011;11484;50.858;4.384;2023-04-24T09:38:17;11.98;;;3.90;;
22634;SDS011;11484;50.858;4.384;2023-04-24T09:40:42;14.18;;;4.55;;
22634;SDS011;11484;50.858;4.384;2023-04-24T09:43:11;8.38;;;3.65;;
22634;SDS011;11484;50.858;4.384;2023-04-24T09:45:37;9.18;;;3.85;;
22634;SDS011;11484;50.858;4.384;2023-04-24T09:48:04;7.30;;;3.38;;
22634;SDS011;11484;50.858;4.384;2023-04-24T09:50:33;6.60;;;3.40;;
22634;SDS011;11484;50.858;4.384;2023-04-24T09:53:03;9.40;;;3.45;;
22634;SDS011;11484;50.858;4.384;2023-04-24T09:55:30;6.38;;;3.80;;
22634;SDS011;11484;50.858;4.384;2023-04-24T09:58:00;7.53;;;3.40;;
22634;SDS011;11484;50.858;4.384;2023-04-24T10:00:30;6.82;;;3.47;;
22634;SDS011;11484;50.858;4.384;2023-04-24T10:02:57;7.60;;;2.92;;
22634;SDS011;11484;50.858;4.384;2023-04-24T10:05:30;8.52;;;3.33;;
22634;SDS011;11484;50.858;4.384;2023-04-24T10:08:07;7.38;;;3.10;;
22634;SDS011;11484;50.858;4.384;2023-04-24T10:10:35;8.65;;;3.20;;
22634;SDS011;11484;50.858;4.384;2023-04-24T10:13:11;7.85;;;3.83;;
22634;SDS011;11484;50.858;4.384;2023-04-24T10:15:38;6.43;;;3.42;;
22634;SDS011;11484;50.858;4.384;2023-04-24T10:18:05;8.65;;;3.72;;
22634;SDS011;11484;50.858;4.384;2023-04-24T10:20:32;7.15;;;3.55;;
22634;SDS011;11484;50.858;4.384;2023-04-24T10:22:59;7.85;;;3.60;;
22634;SDS011;11484;50.858;4.384;2023-04-24T10:25:26;5.50;;;3.55;;
22634;SDS011;11484;50.858;4.384;2023-04-24T10:27:53;8.10;;;3.45;;
22634;SDS011;11484;50.858;4.384;2023-04-24T10:30:24;12.18;;;4.25;;
22634;SDS011;11484;50.858;4.384;2023-04-24T10:33:08;9.75;;;4.32;;
22634;SDS011;11484;50.858;4.384;2023-04-24T10:35:35;7.18;;;3.53;;
22634;SDS011;11484;50.858;4.384;2023-04-24T10:38:07;8.15;;;3.85;;
22634;SDS011;11484;50.858;4.384;2023-04-24T10:40:37;4.68;;;3.17;;
22634;SDS011;11484;50.858;4.384;2023-04-24T10:43:06;8.73;;;3.88;;
22634;SDS011;11484;50.858;4.384;2023-04-24T10:45:34;9.00;;;3.83;;
22634;SDS011;11484;50.858;4.384;2023-04-24T10:48:04;7.13;;;3.55;;
22634;SDS011;11484;50.858;4.384;2023-04-24T10:50:45;8.25;;;3.63;;
22634;SDS011;11484;50.858;4.384;2023-04-24T10:53:13;5.97;;;3.72;;
22634;SDS011;11484;50.858;4.384;2023-04-24T10:55:42;9.30;;;4.15;;
22634;SDS011;11484;50.858;4.384;2023-04-24T10:58:16;8.40;;;4.10;;
22634;SDS011;11484;50.858;4.384;2023-04-24T11:01:07;7.25;;;3.80;;
22634;SDS011;11484;50.858;4.384;2023-04-24T11:03:33;7.60;;;3.85;;
22634;SDS011;11484;50.858;4.384;2023-04-24T11:06:02;7.13;;;3.65;;
22634;SDS011;11484;50.858;4.384;2023-04-24T11:08:30;7.40;;;4.18;;
22634;SDS011;11484;50.858;4.384;2023-04-24T11:19:05;10.95;;;4.65;;
22634;SDS011;11484;50.858;4.384;2023-04-24T11:21:32;6.35;;;3.67;;
22634;SDS011;11484;50.858;4.384;2023-04-24T11:34:56;9.15;;;3.78;;
22634;SDS011;11484;50.858;4.384;2023-04-24T11:37:23;5.75;;;3.92;;
22634;SDS011;11484;50.858;4.384;2023-04-24T11:39:56;8.93;;;4.03;;
22634;SDS011;11484;50.858;4.384;2023-04-24T11:42:23;6.82;;;3.67;;
22634;SDS011;11484;50.858;4.384;2023-04-24T11:44:51;10.68;;;4.38;;
22634;SDS011;11484;50.858;4.384;2023-04-24T11:47:19;7.43;;;4.43;;
22634;SDS011;11484;50.858;4.384;2023-04-24T11:49:45;7.28;;;4.07;;
22634;SDS011;11484;50.858;4.384;2023-04-24T11:52:11;9.25;;;4.45;;
22634;SDS011;11484;50.858;4.384;2023-04-24T11:54:46;6.35;;;4.18;;
22634;SDS011;11484;50.858;4.384;2023-04-24T11:57:13;8.27;;;4.63;;
22634;SDS011;11484;50.858;4.384;2023-04-24T11:59:39;10.55;;;4.53;;
22634;SDS011;11484;50.858;4.384;2023-04-24T12:02:05;9.00;;;4.35;;
22634;SDS011;11484;50.858;4.384;2023-04-24T12:04:40;9.43;;;4.00;;
22634;SDS011;11484;50.858;4.384;2023-04-24T12:07:06;5.50;;;4.10;;
22634;SDS011;11484;50.858;4.384;2023-04-24T12:09:42;7.80;;;4.28;;
22634;SDS011;11484;50.858;4.384;2023-04-24T12:12:09;9.52;;;4.78;;
22634;SDS011;11484;50.858;4.384;2023-04-24T12:17:32;7.95;;;4.25;;
22634;SDS011;11484;50.858;4.384;2023-04-24T12:20:06;6.07;;;4.20;;
22634;SDS011;11484;50.858;4.384;2023-04-24T12:22:50;7.57;;;3.95;;
22634;SDS011;11484;50.858;4.384;2023-04-24T12:25:19;7.65;;;4.32;;
22634;SDS011;11484;50.858;4.384;2023-04-24T12:27:55;6.38;;;4.13;;
22634;SDS011;11484;50.858;4.384;2023-04-24T12:30:41;10.13;;;3.95;;
22634;SDS011;11484;50.858;4.384;2023-04-24T12:33:09;7.13;;;3.85;;
22634;SDS011;11484;50.858;4.384;2023-04-24T12:35:35;6.85;;;3.88;;
22634;SDS011;11484;50.858;4.384;2023-04-24T12:38:11;10.35;;;4.20;;
22634;SDS011;11484;50.858;4.384;2023-04-24T12:40:39;7.75;;;3.90;;
22634;SDS011;11484;50.858;4.384;2023-04-24T12:43:16;6.97;;;3.38;;
22634;SDS011;11484;50.858;4.384;2023-04-24T12:45:47;5.53;;;3.83;;
22634;SDS011;11484;50.858;4.384;2023-04-24T12:48:13;5.95;;;3.35;;
22634;SDS011;11484;50.858;4.384;2023-04-24T12:50:42;9.10;;;3.97;;
22634;SDS011;11484;50.858;4.384;2023-04-24T12:53:08;6.47;;;3.83;;
22634;SDS011;11484;50.858;4.384;2023-04-24T12:55:35;8.45;;;5.03;;
22634;SDS011;11484;50.858;4.384;2023-04-24T12:58:00;6.43;;;3.60;;
22634;SDS011;11484;50.858;4.384;2023-04-24T13:00:27;6.28;;;3.78;;
22634;SDS011;11484;50.858;4.384;2023-04-24T13:02:53;6.32;;;4.00;;
22634;SDS011;11484;50.858;4.384;2023-04-24T13:05:19;8.13;;;3.50;;
22634;SDS011;11484;50.858;4.384;2023-04-24T13:07:45;7.55;;;3.95;;
22634;SDS011;11484;50.858;4.384;2023-04-24T13:10:11;6.25;;;3.63;;
22634;SDS011;11484;50.858;4.384;2023-04-24T13:12:38;5.45;;;4.03;;
22634;SDS011;11484;50.858;4.384;2023-04-24T13:15:04;5.35;;;3.63;;
22634;SDS011;11484;50.858;4.384;2023-04-24T13:17:30;5.50;;;3.40;;
22634;SDS011;11484;50.858;4.384;2023-04-24T13:19:56;5.60;;;2.97;;
22634;SDS011;11484;50.858;4.384;2023-04-24T13:22:21;6.82;;;3.88;;
22634;SDS011;11484;50.858;4.384;2023-04-24T13:24:47;7.60;;;3.47;;
22634;SDS011;11484;50.858;4.384;2023-04-24T13:27:16;6.70;;;3.75;;
22634;SDS011;11484;50.858;4.384;2023-04-24T13:29:42;5.38;;;3.05;;
22634;SDS011;11484;50.858;4.384;2023-04-24T13:32:08;6.55;;;3.28;;
22634;SDS011;11484;50.858;4.384;2023-04-24T13:34:34;9.57;;;4.05;;
22634;SDS011;11484;50.858;4.384;2023-04-24T13:37:01;6.20;;;3.33;;
22634;SDS011;11484;50.858;4.384;2023-04-24T13:39:28;7.97;;;3.72;;
22634;SDS011;11484;50.858;4.384;2023-04-24T13:41:55;3.97;;;2.38;;
22634;SDS011;11484;50.858;4.384;2023-04-24T13:44:21;5.55;;;2.80;;
22634;SDS011;11484;50.858;4.384;2023-04-24T13:46:49;5.15;;;2.78;;
22634;SDS011;11484;50.858;4.384;2023-04-24T13:49:17;7.50;;;2.80;;
22634;SDS011;11484;50.858;4.384;2023-04-24T13:51:43;5.43;;;2.75;;
22634;SDS011;11484;50.858;4.384;2023-04-24T13:54:10;9.15;;;2.72;;
22634;SDS011;11484;50.858;4.384;2023-04-24T13:56:36;6.30;;;2.75;;
22634;SDS011;11484;50.858;4.384;2023-04-24T13:59:02;5.38;;;2.45;;
22634;SDS011;11484;50.858;4.384;2023-04-24T14:01:28;4.85;;;2.58;;
22634;SDS011;11484;50.858;4.384;2023-04-24T14:03:54;5.32;;;1.90;;
22634;SDS011;11484;50.858;4.384;2023-04-24T14:06:21;6.90;;;3.10;;
22634;SDS011;11484;50.858;4.384;2023-04-24T14:08:48;6.30;;;2.33;;
22634;SDS011;11484;50.858;4.384;2023-04-24T14:11:15;5.13;;;2.30;;
22634;SDS011;11484;50.858;4.384;2023-04-24T14:13:41;5.70;;;2.30;;
22634;SDS011;11484;50.858;4.384;2023-04-24T14:16:07;3.95;;;2.25;;
22634;SDS011;11484;50.858;4.384;2023-04-24T14:18:33;4.88;;;2.08;;
22634;SDS011;11484;50.858;4.384;2023-04-24T14:20:59;3.33;;;2.30;;
22634;SDS011;11484;50.858;4.384;2023-04-24T14:23:26;3.70;;;2.00;;
22634;SDS011;11484;50.858;4.384;2023-04-24T14:25:52;3.90;;;1.88;;
22634;SDS011;11484;50.858;4.384;2023-04-24T14:28:18;5.38;;;1.98;;
22634;SDS011;11484;50.858;4.384;2023-04-24T14:30:45;4.07;;;1.95;;
22634;SDS011;11484;50.858;4.384;2023-04-24T14:33:11;6.80;;;2.50;;
22634;SDS011;11484;50.858;4.384;2023-04-24T14:35:38;5.22;;;2.97;;
22634;SDS011;11484;50.858;4.384;2023-04-24T14:38:05;6.32;;;2.03;;
22634;SDS011;11484;50.858;4.384;2023-04-24T14:40:31;6.45;;;3.03;;
22634;SDS011;11484;50.858;4.384;2023-04-24T14:42:57;4.95;;;2.47;;
22634;SDS011;11484;50.858;4.384;2023-04-24T14:45:26;12.45;;;5.75;;
22634;SDS011;11484;50.858;4.384;2023-04-24T14:47:52;5.30;;;2.30;;
22634;SDS011;11484;50.858;4.384;2023-04-24T14:50:18;4.45;;;1.88;;
22634;SDS011;11484;50.858;4.384;2023-04-24T14:52:45;7.38;;;3.33;;
22634;SDS011;11484;50.858;4.384;2023-04-24T14:55:11;5.15;;;2.17;;
22634;SDS011;11484;50.858;4.384;2023-04-24T14:57:37;9.25;;;3.53;;
22634;SDS011;11484;50.858;4.384;2023-04-24T15:00:03;2.60;;;1.90;;
22634;SDS011;11484;50.858;4.384;2023-04-24T15:02:32;4.45;;;1.92;;